sensor_id;sensor_type;location;lat;lon;timestamp;temperature;humidity
19999;DHT22;10160;50.926;4.374;2022-07-23T00:25:43;18.20;99.90
19999;DHT22;10160;50.926;4.374;2022-07-23T07:55:10;19.70;99.90
19999;DHT22;10160;50.926;4.374;2022-07-23T08:23:50;20.60;99.90
19999;DHT22;10160;50.926;4.374;2022-07-23T08:31:17;20.90;99.90
19999;DHT22;10160;50.926;4.374;2022-07-23T10:58:45;26.80;99.90
19999;DHT22;10160;50.926;4.374;2022-07-23T12:02:21;29.20;99.90
19999;DHT22;10160;50.926;4.374;2022-07-23T12:04:49;29.40;99.90
19999;DHT22;10160;50.926;4.374;2022-07-23T12:07:34;29.20;99.90
19999;DHT22;10160;50.926;4.374;2022-07-23T12:10:24;29.30;99.90
19999;DHT22;10160;50.926;4.374;2022-07-23T12:12:51;29.40;99.90
19999;DHT22;10160;50.926;4.374;2022-07-23T12:15:21;29.30;99.90
19999;DHT22;10160;50.926;4.374;2022-07-23T12:17:49;29.60;99.90
19999;DHT22;10160;50.926;4.374;2022-07-23T12:20:24;29.30;99.90
19999;DHT22;10160;50.926;4.374;2022-07-23T12:22:52;29.20;99.90
19999;DHT22;10160;50.926;4.374;2022-07-23T12:25:20;29.30;99.90
19999;DHT22;10160;50.926;4.374;2022-07-23T12:27:56;29.00;99.90
19999;DHT22;10160;50.926;4.374;2022-07-23T12:30:29;29.70;99.90
19999;DHT22;10160;50.926;4.374;2022-07-23T12:32:57;29.40;99.90
19999;DHT22;10160;50.926;4.374;2022-07-23T12:35:30;28.30;99.90
19999;DHT22;10160;50.926;4.374;2022-07-23T12:38:02;28.60;99.90
19999;DHT22;10160;50.926;4.374;2022-07-23T12:43:08;30.10;99.90
19999;DHT22;10160;50.926;4.374;2022-07-23T12:46:04;30.10;99.90
19999;DHT22;10160;50.926;4.374;2022-07-23T12:48:35;29.00;99.90
19999;DHT22;10160;50.926;4.374;2022-07-23T12:51:30;28.00;99.90
19999;DHT22;10160;50.926;4.374;2022-07-23T12:54:09;27.60;99.90
19999;DHT22;10160;50.926;4.374;2022-07-23T12:56:37;28.20;99.90
19999;DHT22;10160;50.926;4.374;2022-07-23T13:01:31;29.50;99.90
19999;DHT22;10160;50.926;4.374;2022-07-23T13:04:08;29.70;99.90
19999;DHT22;10160;50.926;4.374;2022-07-23T13:06:39;29.60;99.90
19999;DHT22;10160;50.926;4.374;2022-07-23T13:09:09;29.30;99.90
19999;DHT22;10160;50.926;4.374;2022-07-23T13:11:35;29.10;99.90
19999;DHT22;10160;50.926;4.374;2022-07-23T13:14:02;29.20;99.90
19999;DHT22;10160;50.926;4.374;2022-07-23T13:16:29;29.80;99.90
19999;DHT22;10160;50.926;4.374;2022-07-23T13:18:56;29.60;99.90
19999;DHT22;10160;50.926;4.374;2022-07-23T13:21:26;29.00;99.90
19999;DHT22;10160;50.926;4.374;2022-07-23T13:23:52;29.50;99.90
19999;DHT22;10160;50.926;4.374;2022-07-23T13:26:18;29.40;99.90
19999;DHT22;10160;50.926;4.374;2022-07-23T13:28:43;29.80;99.90
19999;DHT22;10160;50.926;4.374;2022-07-23T13:31:09;29.10;99.90
19999;DHT22;10160;50.926;4.374;2022-07-23T13:33:38;29.30;99.90
19999;DHT22;10160;50.926;4.374;2022-07-23T13:36:04;29.60;99.90
19999;DHT22;10160;50.926;4.374;2022-07-23T13:38:30;30.00;99.90
19999;DHT22;10160;50.926;4.374;2022-07-23T13:40:56;30.30;99.90
19999;DHT22;10160;50.926;4.374;2022-07-23T13:43:23;30.40;99.90
19999;DHT22;10160;50.926;4.374;2022-07-23T13:45:50;29.70;99.90
19999;DHT22;10160;50.926;4.374;2022-07-23T13:48:17;29.60;99.90
19999;DHT22;10160;50.926;4.374;2022-07-23T13:50:44;29.50;99.90
19999;DHT22;10160;50.926;4.374;2022-07-23T13:53:20;29.40;99.90
19999;DHT22;10160;50.926;4.374;2022-07-23T13:55:47;29.40;99.90
19999;DHT22;10160;50.926;4.374;2022-07-23T13:58:13;29.50;99.90
19999;DHT22;10160;50.926;4.374;2022-07-23T14:00:42;29.60;99.90
19999;DHT22;10160;50.926;4.374;2022-07-23T14:03:08;29.30;99.90
19999;DHT22;10160;50.926;4.374;2022-07-23T14:05:35;29.30;99.90
19999;DHT22;10160;50.926;4.374;2022-07-23T14:08:02;29.30;99.90
19999;DHT22;10160;50.926;4.374;2022-07-23T14:10:28;29.30;99.90
19999;DHT22;10160;50.926;4.374;2022-07-23T14:12:54;29.40;99.90
19999;DHT22;10160;50.926;4.374;2022-07-23T14:15:23;29.00;99.90
19999;DHT22;10160;50.926;4.374;2022-07-23T14:17:49;29.60;99.90
19999;DHT22;10160;50.926;4.374;2022-07-23T14:20:15;29.70;99.90
19999;DHT22;10160;50.926;4.374;2022-07-23T14:22:40;29.60;99.90
19999;DHT22;10160;50.926;4.374;2022-07-23T14:25:07;30.00;99.90
19999;DHT22;10160;50.926;4.374;2022-07-23T14:27:33;30.40;99.90
19999;DHT22;10160;50.926;4.374;2022-07-23T14:29:59;30.70;99.90
19999;DHT22;10160;50.926;4.374;2022-07-23T14:32:25;30.10;99.90
19999;DHT22;10160;50.926;4.374;2022-07-23T14:34:52;29.60;99.90
19999;DHT22;10160;50.926;4.374;2022-07-23T14:37:18;29.40;99.90
19999;DHT22;10160;50.926;4.374;2022-07-23T14:39:45;29.00;99.90
19999;DHT22;10160;50.926;4.374;2022-07-23T14:42:10;29.10;99.90
19999;DHT22;10160;50.926;4.374;2022-07-23T14:44:37;29.70;99.90
19999;DHT22;10160;50.926;4.374;2022-07-23T14:47:04;29.80;99.90
19999;DHT22;10160;50.926;4.374;2022-07-23T14:49:33;29.80;99.90
19999;DHT22;10160;50.926;4.374;2022-07-23T14:52:00;29.80;99.90
19999;DHT22;10160;50.926;4.374;2022-07-23T14:54:27;30.20;99.90
19999;DHT22;10160;50.926;4.374;2022-07-23T14:56:55;30.20;99.90
19999;DHT22;10160;50.926;4.374;2022-07-23T14:59:21;30.40;99.90
19999;DHT22;10160;50.926;4.374;2022-07-23T15:01:47;30.10;99.90
19999;DHT22;10160;50.926;4.374;2022-07-23T15:04:13;29.70;99.90
19999;DHT22;10160;50.926;4.374;2022-07-23T15:06:38;29.60;99.90
19999;DHT22;10160;50.926;4.374;2022-07-23T15:09:05;29.80;99.90
19999;DHT22;10160;50.926;4.374;2022-07-23T15:11:31;29.60;99.90
19999;DHT22;10160;50.926;4.374;2022-07-23T15:14:00;29.60;99.90
19999;DHT22;10160;50.926;4.374;2022-07-23T15:16:26;29.90;99.90
19999;DHT22;10160;50.926;4.374;2022-07-23T15:18:52;29.60;99.90
19999;DHT22;10160;50.926;4.374;2022-07-23T15:21:17;29.60;99.90
19999;DHT22;10160;50.926;4.374;2022-07-23T15:23:43;29.50;99.90
19999;DHT22;10160;50.926;4.374;2022-07-23T15:26:09;29.40;99.90
19999;DHT22;10160;50.926;4.374;2022-07-23T15:28:36;29.40;99.90
19999;DHT22;10160;50.926;4.374;2022-07-23T15:31:02;29.70;99.90
19999;DHT22;10160;50.926;4.374;2022-07-23T15:33:27;29.50;99.90
19999;DHT22;10160;50.926;4.374;2022-07-23T15:35:53;29.70;99.90
19999;DHT22;10160;50.926;4.374;2022-07-23T15:38:21;29.70;99.90
19999;DHT22;10160;50.926;4.374;2022-07-23T15:40:47;29.50;99.90
19999;DHT22;10160;50.926;4.374;2022-07-23T15:43:13;29.20;99.90
19999;DHT22;10160;50.926;4.374;2022-07-23T15:45:40;29.50;99.90
19999;DHT22;10160;50.926;4.374;2022-07-23T15:48:06;29.70;99.90
19999;DHT22;10160;50.926;4.374;2022-07-23T15:50:31;29.60;99.90
19999;DHT22;10160;50.926;4.374;2022-07-23T15:52:57;29.80;99.90
19999;DHT22;10160;50.926;4.374;2022-07-23T15:55:23;30.10;99.90
19999;DHT22;10160;50.926;4.374;2022-07-23T15:57:49;30.10;99.90
19999;DHT22;10160;50.926;4.374;2022-07-23T16:00:15;29.90;99.90
19999;DHT22;10160;50.926;4.374;2022-07-23T16:02:41;29.80;99.90
19999;DHT22;10160;50.926;4.374;2022-07-23T16:05:07;29.80;99.90
19999;DHT22;10160;50.926;4.374;2022-07-23T16:07:51;29.60;99.90
19999;DHT22;10160;50.926;4.374;2022-07-23T16:10:17;29.40;99.90
19999;DHT22;10160;50.926;4.374;2022-07-23T16:12:42;29.40;99.90
19999;DHT22;10160;50.926;4.374;2022-07-23T16:15:09;29.00;99.90
19999;DHT22;10160;50.926;4.374;2022-07-23T16:17:35;28.80;99.90
19999;DHT22;10160;50.926;4.374;2022-07-23T16:20:00;28.90;99.90
19999;DHT22;10160;50.926;4.374;2022-07-23T16:24:54;29.40;99.90
19999;DHT22;10160;50.926;4.374;2022-07-23T16:27:20;29.10;99.90
19999;DHT22;10160;50.926;4.374;2022-07-23T16:29:45;28.90;99.90
19999;DHT22;10160;50.926;4.374;2022-07-23T16:32:11;28.60;99.90
19999;DHT22;10160;50.926;4.374;2022-07-23T16:34:37;28.60;99.90
19999;DHT22;10160;50.926;4.374;2022-07-23T16:37:02;28.30;99.90
19999;DHT22;10160;50.926;4.374;2022-07-23T16:39:28;28.60;99.90
19999;DHT22;10160;50.926;4.374;2022-07-23T16:41:54;28.60;99.90
19999;DHT22;10160;50.926;4.374;2022-07-23T16:44:19;28.80;99.90
19999;DHT22;10160;50.926;4.374;2022-07-23T16:46:45;28.90;99.90
19999;DHT22;10160;50.926;4.374;2022-07-23T16:49:11;28.70;99.90
19999;DHT22;10160;50.926;4.374;2022-07-23T16:51:37;28.90;99.90
19999;DHT22;10160;50.926;4.374;2022-07-23T16:54:03;29.10;99.90
19999;DHT22;10160;50.926;4.374;2022-07-23T16:56:29;29.20;99.90
19999;DHT22;10160;50.926;4.374;2022-07-23T16:58:55;29.10;99.90
19999;DHT22;10160;50.926;4.374;2022-07-23T17:01:21;28.90;99.90
19999;DHT22;10160;50.926;4.374;2022-07-23T17:03:46;29.00;99.90
19999;DHT22;10160;50.926;4.374;2022-07-23T17:06:12;29.30;99.90
19999;DHT22;10160;50.926;4.374;2022-07-23T17:08:38;29.00;99.90
19999;DHT22;10160;50.926;4.374;2022-07-23T17:11:04;29.20;99.90
19999;DHT22;10160;50.926;4.374;2022-07-23T17:13:30;29.20;99.90
19999;DHT22;10160;50.926;4.374;2022-07-23T17:15:56;29.40;99.90
19999;DHT22;10160;50.926;4.374;2022-07-23T17:18:22;29.50;99.90
19999;DHT22;10160;50.926;4.374;2022-07-23T17:20:49;29.40;99.90
19999;DHT22;10160;50.926;4.374;2022-07-23T17:23:15;29.20;99.90
19999;DHT22;10160;50.926;4.374;2022-07-23T17:25:41;28.90;99.90
19999;DHT22;10160;50.926;4.374;2022-07-23T17:28:07;28.60;99.90
19999;DHT22;10160;50.926;4.374;2022-07-23T17:30:33;28.60;99.90
19999;DHT22;10160;50.926;4.374;2022-07-23T17:32:58;28.70;99.90
19999;DHT22;10160;50.926;4.374;2022-07-23T17:35:24;28.50;99.90
19999;DHT22;10160;50.926;4.374;2022-07-23T17:37:50;28.20;99.90
19999;DHT22;10160;50.926;4.374;2022-07-23T17:40:16;28.10;99.90
19999;DHT22;10160;50.926;4.374;2022-07-23T17:42:42;27.90;99.90
19999;DHT22;10160;50.926;4.374;2022-07-23T17:45:09;27.80;99.90
19999;DHT22;10160;50.926;4.374;2022-07-23T17:47:43;28.10;99.90
19999;DHT22;10160;50.926;4.374;2022-07-23T17:50:12;28.00;99.90
19999;DHT22;10160;50.926;4.374;2022-07-23T17:52:52;27.80;99.90
19999;DHT22;10160;50.926;4.374;2022-07-23T17:55:19;27.90;99.90
19999;DHT22;10160;50.926;4.374;2022-07-23T17:57:45;27.90;99.90
19999;DHT22;10160;50.926;4.374;2022-07-23T18:00:14;27.70;99.90
19999;DHT22;10160;50.926;4.374;2022-07-23T18:02:40;27.90;99.90
19999;DHT22;10160;50.926;4.374;2022-07-23T18:05:06;27.90;99.90
19999;DHT22;10160;50.926;4.374;2022-07-23T18:07:32;27.90;99.90
19999;DHT22;10160;50.926;4.374;2022-07-23T18:09:57;28.00;99.90
19999;DHT22;10160;50.926;4.374;2022-07-23T18:12:23;28.00;99.90
19999;DHT22;10160;50.926;4.374;2022-07-23T18:14:49;27.90;99.90
19999;DHT22;10160;50.926;4.374;2022-07-23T18:17:16;28.00;99.90
19999;DHT22;10160;50.926;4.374;2022-07-23T18:19:42;27.90;99.90
19999;DHT22;10160;50.926;4.374;2022-07-23T18:22:36;27.80;99.90
19999;DHT22;10160;50.926;4.374;2022-07-23T18:28:49;27.80;99.90
19999;DHT22;10160;50.926;4.374;2022-07-23T18:31:50;27.90;99.90
19999;DHT22;10160;50.926;4.374;2022-07-23T18:39:05;27.90;99.90
19999;DHT22;10160;50.926;4.374;2022-07-23T18:49:47;27.70;99.90
19999;DHT22;10160;50.926;4.374;2022-07-23T18:53:27;27.50;99.90
19999;DHT22;10160;50.926;4.374;2022-07-23T18:56:52;27.40;99.90
19999;DHT22;10160;50.926;4.374;2022-07-23T19:00:36;27.30;99.90
19999;DHT22;10160;50.926;4.374;2022-07-23T19:04:02;27.10;99.90
19999;DHT22;10160;50.926;4.374;2022-07-23T19:07:34;26.90;99.90
19999;DHT22;10160;50.926;4.374;2022-07-23T19:11:04;26.70;99.90
19999;DHT22;10160;50.926;4.374;2022-07-23T19:14:32;26.50;99.90
19999;DHT22;10160;50.926;4.374;2022-07-23T19:18:15;26.40;99.90
19999;DHT22;10160;50.926;4.374;2022-07-23T19:21:44;26.20;99.90
19999;DHT22;10160;50.926;4.374;2022-07-23T19:24:44;26.30;99.90
19999;DHT22;10160;50.926;4.374;2022-07-23T19:28:14;26.20;99.90
19999;DHT22;10160;50.926;4.374;2022-07-23T19:31:03;26.00;99.90
19999;DHT22;10160;50.926;4.374;2022-07-23T19:33:52;25.90;99.90
19999;DHT22;10160;50.926;4.374;2022-07-23T19:36:47;25.80;99.90
19999;DHT22;10160;50.926;4.374;2022-07-23T19:39:38;25.80;99.90
19999;DHT22;10160;50.926;4.374;2022-07-23T19:42:58;25.80;99.90
19999;DHT22;10160;50.926;4.374;2022-07-23T19:46:08;25.80;99.90
19999;DHT22;10160;50.926;4.374;2022-07-23T19:49:42;25.70;99.90
19999;DHT22;10160;50.926;4.374;2022-07-23T19:53:06;25.70;99.90
19999;DHT22;10160;50.926;4.374;2022-07-23T19:55:38;25.80;99.90
19999;DHT22;10160;50.926;4.374;2022-07-23T19:58:19;25.60;99.90
19999;DHT22;10160;50.926;4.374;2022-07-23T20:01:14;25.50;99.90
19999;DHT22;10160;50.926;4.374;2022-07-23T20:04:24;25.30;99.90
19999;DHT22;10160;50.926;4.374;2022-07-23T20:07:22;25.20;99.90
19999;DHT22;10160;50.926;4.374;2022-07-23T20:10:14;25.20;99.90
19999;DHT22;10160;50.926;4.374;2022-07-23T20:13:04;25.20;99.90
19999;DHT22;10160;50.926;4.374;2022-07-23T20:15:35;25.20;99.90
19999;DHT22;10160;50.926;4.374;2022-07-23T20:18:14;25.20;99.90
19999;DHT22;10160;50.926;4.374;2022-07-23T20:21:01;25.20;99.90
19999;DHT22;10160;50.926;4.374;2022-07-23T20:23:40;25.10;99.90
19999;DHT22;10160;50.926;4.374;2022-07-23T20:26:07;25.00;99.90
19999;DHT22;10160;50.926;4.374;2022-07-23T20:28:37;24.70;99.90
19999;DHT22;10160;50.926;4.374;2022-07-23T20:31:05;24.80;99.90
19999;DHT22;10160;50.926;4.374;2022-07-23T20:33:31;24.60;99.90
19999;DHT22;10160;50.926;4.374;2022-07-23T20:35:58;24.30;99.90
19999;DHT22;10160;50.926;4.374;2022-07-23T20:38:28;24.00;99.90
19999;DHT22;10160;50.926;4.374;2022-07-23T20:40:57;24.00;99.90
19999;DHT22;10160;50.926;4.374;2022-07-23T20:43:35;24.00;99.90
19999;DHT22;10160;50.926;4.374;2022-07-23T20:46:00;24.10;99.90
19999;DHT22;10160;50.926;4.374;2022-07-23T20:48:26;24.10;99.90
19999;DHT22;10160;50.926;4.374;2022-07-23T20:50:52;23.80;99.90
19999;DHT22;10160;50.926;4.374;2022-07-23T20:53:18;23.90;99.90
19999;DHT22;10160;50.926;4.374;2022-07-23T20:55:45;23.80;99.90
19999;DHT22;10160;50.926;4.374;2022-07-23T20:58:14;23.60;99.90
19999;DHT22;10160;50.926;4.374;2022-07-23T21:01:00;23.60;99.90
19999;DHT22;10160;50.926;4.374;2022-07-23T21:03:27;23.70;99.90
19999;DHT22;10160;50.926;4.374;2022-07-23T21:05:52;23.60;99.90
19999;DHT22;10160;50.926;4.374;2022-07-23T21:08:20;23.70;99.90
19999;DHT22;10160;50.926;4.374;2022-07-23T21:10:46;23.70;99.90
19999;DHT22;10160;50.926;4.374;2022-07-23T21:13:12;23.60;99.90
19999;DHT22;10160;50.926;4.374;2022-07-23T21:15:38;23.60;99.90
19999;DHT22;10160;50.926;4.374;2022-07-23T21:18:04;23.70;99.90
19999;DHT22;10160;50.926;4.374;2022-07-23T21:20:31;23.70;99.90
19999;DHT22;10160;50.926;4.374;2022-07-23T21:23:17;23.70;99.90
19999;DHT22;10160;50.926;4.374;2022-07-23T21:25:43;23.80;99.90
19999;DHT22;10160;50.926;4.374;2022-07-23T21:28:09;23.60;99.90
19999;DHT22;10160;50.926;4.374;2022-07-23T21:30:35;23.30;99.90
19999;DHT22;10160;50.926;4.374;2022-07-23T21:33:00;23.40;99.90
19999;DHT22;10160;50.926;4.374;2022-07-23T21:35:26;23.50;99.90
19999;DHT22;10160;50.926;4.374;2022-07-23T21:37:54;23.60;99.90
19999;DHT22;10160;50.926;4.374;2022-07-23T21:40:20;23.50;99.90
19999;DHT22;10160;50.926;4.374;2022-07-23T21:42:46;23.60;99.90
19999;DHT22;10160;50.926;4.374;2022-07-23T21:45:12;23.30;99.90
19999;DHT22;10160;50.926;4.374;2022-07-23T21:47:37;23.10;99.90
19999;DHT22;10160;50.926;4.374;2022-07-23T21:50:03;22.70;99.90
19999;DHT22;10160;50.926;4.374;2022-07-23T21:52:29;22.50;99.90
19999;DHT22;10160;50.926;4.374;2022-07-23T22:01:23;22.20;99.90
19999;DHT22;10160;50.926;4.374;2022-07-23T22:03:49;22.20;99.90
19999;DHT22;10160;50.926;4.374;2022-07-23T22:06:14;22.00;99.90
19999;DHT22;10160;50.926;4.374;2022-07-23T22:08:40;22.00;99.90
19999;DHT22;10160;50.926;4.374;2022-07-23T22:11:06;21.90;99.90
19999;DHT22;10160;50.926;4.374;2022-07-23T22:13:32;21.80;99.90
19999;DHT22;10160;50.926;4.374;2022-07-23T22:15:57;21.70;99.90
19999;DHT22;10160;50.926;4.374;2022-07-23T22:18:23;21.60;99.90
19999;DHT22;10160;50.926;4.374;2022-07-23T22:20:49;21.50;99.90
19999;DHT22;10160;50.926;4.374;2022-07-23T22:23:14;21.60;99.90
19999;DHT22;10160;50.926;4.374;2022-07-23T22:25:40;21.50;99.90
19999;DHT22;10160;50.926;4.374;2022-07-23T22:28:06;21.50;99.90
19999;DHT22;10160;50.926;4.374;2022-07-23T22:30:32;21.40;99.90
19999;DHT22;10160;50.926;4.374;2022-07-23T22:32:58;21.50;99.90
19999;DHT22;10160;50.926;4.374;2022-07-23T22:35:24;21.50;99.90
19999;DHT22;10160;50.926;4.374;2022-07-23T22:37:50;21.80;99.90
19999;DHT22;10160;50.926;4.374;2022-07-23T22:40:16;21.60;99.90
19999;DHT22;10160;50.926;4.374;2022-07-23T22:42:42;21.40;99.90
19999;DHT22;10160;50.926;4.374;2022-07-23T22:45:08;21.20;99.90
19999;DHT22;10160;50.926;4.374;2022-07-23T22:47:34;21.30;99.90
19999;DHT22;10160;50.926;4.374;2022-07-23T22:50:00;21.30;99.90
19999;DHT22;10160;50.926;4.374;2022-07-23T22:52:26;21.40;99.90
19999;DHT22;10160;50.926;4.374;2022-07-23T22:54:52;21.30;99.90
19999;DHT22;10160;50.926;4.374;2022-07-23T22:57:17;21.30;99.90
19999;DHT22;10160;50.926;4.374;2022-07-23T22:59:43;21.40;99.90
19999;DHT22;10160;50.926;4.374;2022-07-23T23:02:09;21.20;99.90
19999;DHT22;10160;50.926;4.374;2022-07-23T23:04:35;21.10;99.90
19999;DHT22;10160;50.926;4.374;2022-07-23T23:07:02;21.10;99.90
19999;DHT22;10160;50.926;4.374;2022-07-23T23:09:27;21.10;99.90
19999;DHT22;10160;50.926;4.374;2022-07-23T23:11:53;21.10;99.90
19999;DHT22;10160;50.926;4.374;2022-07-23T23:14:19;21.10;99.90
19999;DHT22;10160;50.926;4.374;2022-07-23T23:16:45;21.20;99.90
19999;DHT22;10160;50.926;4.374;2022-07-23T23:19:11;21.10;99.90
19999;DHT22;10160;50.926;4.374;2022-07-23T23:21:39;21.10;99.90
19999;DHT22;10160;50.926;4.374;2022-07-23T23:24:06;21.10;99.90
19999;DHT22;10160;50.926;4.374;2022-07-23T23:26:32;21.10;99.90
19999;DHT22;10160;50.926;4.374;2022-07-23T23:28:58;21.00;99.90
19999;DHT22;10160;50.926;4.374;2022-07-23T23:31:23;20.70;99.90
19999;DHT22;10160;50.926;4.374;2022-07-23T23:33:49;20.80;99.90
19999;DHT22;10160;50.926;4.374;2022-07-23T23:36:15;20.80;99.90
19999;DHT22;10160;50.926;4.374;2022-07-23T23:38:40;20.80;99.90
19999;DHT22;10160;50.926;4.374;2022-07-23T23:41:06;20.80;99.90
19999;DHT22;10160;50.926;4.374;2022-07-23T23:43:31;20.90;99.90
19999;DHT22;10160;50.926;4.374;2022-07-23T23:45:57;20.90;99.90
19999;DHT22;10160;50.926;4.374;2022-07-23T23:48:23;21.10;99.90
19999;DHT22;10160;50.926;4.374;2022-07-23T23:50:49;21.10;99.90
19999;DHT22;10160;50.926;4.374;2022-07-23T23:53:14;21.20;99.90
19999;DHT22;10160;50.926;4.374;2022-07-23T23:55:40;21.30;99.90
19999;DHT22;10160;50.926;4.374;2022-07-23T23:58:06;21.30;99.90
